Texas 商标

Prosper, TX 独户式别墅出售

612 全部出售房产 * 点击表头进行排选
发布日期 房产类型 风格 地址 价格 居住环境 地皮面积 价格/平方英尺.
2018-05-24 独户式别墅 Traditional 721 Buffalo Springs Drive Prosper, TX 75078 $449,900 3,472 平方英尺. 10,890 平方英尺. $130
2018-05-23 独户式别墅 Traditional 2635 Twelve Oaks Lane Prosper, TX 75078 $1,699,900 6,811 平方英尺. 157,687 平方英尺. $250
2018-05-23 独户式别墅 Traditional 1001 Lancer Prosper, TX 75078 $522,000 3,237 平方英尺. 12,632 平方英尺. $161
2018-05-23 独户式别墅 Traditional 411 Fox Crossing Lane Prosper, TX 75078 $460,915 3,094 平方英尺. $149
2018-05-23 独户式别墅 Traditional 350 Fox Crossing Lane Prosper, TX 75078 $480,405 3,289 平方英尺. $146
2018-05-23 独户式别墅 Traditional 410 Devonshire Drive Prosper, TX 75078 $399,000 2,871 平方英尺. 10,019 平方英尺. $139
2018-05-23 独户式别墅 Traditional 981 Deer Run Lane Prosper, TX 75078 $749,000 4,644 平方英尺. 15,246 平方英尺. $161
2018-05-22 独户式别墅 Traditional 1405 Jennings Court Prosper, TX 75078 $379,500 3,013 平方英尺. 6,534 平方英尺. $126
2018-05-22 独户式别墅 Traditional 130 Darian Drive Prosper, TX 75078 $479,990 3,722 平方英尺. $129
2018-05-22 独户式别墅 231 Lake Trail Lane Prosper, TX 75078 $490,000 3,596 平方英尺. 10,454 平方英尺. $136
2018-05-22 独户式别墅 Traditional 1300 Corona Court Prosper, TX 75078 $325,000 2,471 平方英尺. 7,405 平方英尺. $132
2018-05-21 独户式别墅 Ranch 2630 Glen Haven Court Prosper, TX 75078 $365,000 2,346 平方英尺. 8,276 平方英尺. $156
2018-05-21 独户式别墅 Traditional 2781 Meadowbrook Boulevard Prosper, TX 75078 $557,900 3,003 平方英尺. $186
2018-05-21 独户式别墅 Traditional 1721 Lexington Avenue Prosper, TX 75078 $772,081 4,260 平方英尺. 10,890 平方英尺. $181
2018-05-20 独户式别墅 Ranch 720 Country Brook Lane Prosper, TX 75078 $657,000 3,394 平方英尺. 11,761 平方英尺. $194
2018-05-19 独户式别墅 Traditional 1600 Gentle Way Prosper, TX 75078 $949,900 4,928 平方英尺. 76,230 平方英尺. $193
2018-05-19 独户式别墅 Traditional 1913 Brownwood Boulevard Prosper, TX 75078 $340,000 1,949 平方英尺. 5,663 平方英尺. $174
2018-05-19 独户式别墅 Traditional 5560 Manitou Drive Prosper, TX 75078 $319,900 2,916 平方英尺. 9,148 平方英尺. $110
2018-05-19 独户式别墅 Traditional 4031 Dewberry Lane Prosper, TX 75078 $525,000 3,401 平方英尺. 8,712 平方英尺. $154
2018-05-18 独户式别墅 Traditional; Tudor 4710 Crossvine Drive Prosper, TX 75078 $460,000 2,973 平方英尺. 8,712 平方英尺. $155
2018-05-18 独户式别墅 Traditional 1441 Amistad Drive Prosper, TX 75078 $409,900 3,117 平方英尺. 10,890 平方英尺. $132
2018-05-18 独户式别墅 Traditional 4440 Desert Willow Drive Prosper, TX 75078 $634,000 4,314 平方英尺. 10,890 平方英尺. $147
2018-05-18 独户式别墅 Traditional 321 Kebler Drive Prosper, TX 75078 $715,000 3,582 平方英尺. 14,810 平方英尺. $200
2018-05-18 独户式别墅 Traditional 951 Woodview Drive Prosper, TX 75078 $1,199,000 5,598 平方英尺. 43,560 平方英尺. $214
2018-05-18 独户式别墅 Traditional 1301 Cheshire Court Prosper, TX 75078 $410,000 2,662 平方英尺. 10,019 平方英尺. $154
2018-05-18 独户式别墅 Traditional 16337 Toledo Bend Court Prosper, TX 75078 $319,900 2,249 平方英尺. 5,663 平方英尺. $142
2018-05-18 独户式别墅 Traditional 810 Summerfield Prosper, TX 75078 $534,900 4,271 平方英尺. 10,019 平方英尺. $125
2018-05-18 独户式别墅 Traditional 1300 Amistad Drive Prosper, TX 75078 $439,900 3,533 平方英尺. 10,454 平方英尺. $125
2018-05-17 独户式别墅 Traditional 1751 Windy Hill Lane Prosper, TX 75078 $650,000 4,417 平方英尺. 14,810 平方英尺. $147
2018-05-17 独户式别墅 2460 Wildflower Way Prosper, TX 75078 $624,900 3,750 平方英尺. 15,682 平方英尺. $167
2018-05-17 独户式别墅 Traditional 1590 Blue Forest Drive Prosper, TX 75078 $749,900 4,016 平方英尺. 43,124 平方英尺. $187
2018-05-17 独户式别墅 Traditional 1600 Blue Forest Drive Prosper, TX 75078 $709,900 4,039 平方英尺. 43,124 平方英尺. $176
2018-05-17 独户式别墅 Traditional 741 Gray Lane Prosper, TX 75078 $349,000 2,925 平方英尺. 13,068 平方英尺. $119
2018-05-17 独户式别墅 Traditional 5700 Crestwood Drive Prosper, TX 75078 $310,900 2,957 平方英尺. 11,326 平方英尺. $105
2018-05-17 独户式别墅 Traditional 5671 Coventry Drive Prosper, TX 75078 $310,000 2,928 平方英尺. 6,970 平方英尺. $106
2018-05-17 独户式别墅 Traditional 156 Crown Colony Drive Prosper, TX 75078 $324,945 2,242 平方英尺. 10,019 平方英尺. $145
2018-05-17 独户式别墅 Traditional 1429 Nacona Drive Prosper, TX 75078 $339,500 2,345 平方英尺. 6,534 平方英尺. $145
2018-05-17 独户式别墅 Traditional 1750 Highland Meadows Drive Prosper, TX 75078 $585,000 3,125 平方英尺. 43,996 平方英尺. $187
2018-05-17 独户式别墅 Ranch 901 Stratford Drive Prosper, TX 75078 $500,000 3,360 平方英尺. 13,068 平方英尺. $149
2018-05-17 独户式别墅 Traditional 900 Fox Ridge Trail Prosper, TX 75078 $450,000 2,860 平方英尺. 9,148 平方英尺. $157
2018-05-17 独户式别墅 Traditional 1201 Clipston Drive Prosper, TX 75078 $649,900 5,142 平方英尺. 12,632 平方英尺. $126
2018-05-17 独户式别墅 Ranch 2740 Kingston Street Prosper, TX 75078 $523,885 3,150 平方英尺. 7,841 平方英尺. $166
2018-05-17 独户式别墅 Traditional 961 Fox Ridge Trail Prosper, TX 75078 $489,000 3,358 平方英尺. 9,148 平方英尺. $146
2018-05-16 独户式别墅 Mediterranean; Traditional 960 Warren Drive Prosper, TX 75078 $669,000 3,949 平方英尺. 19,166 平方英尺. $169
2018-05-16 独户式别墅 Traditional 901 Greenbriar Prosper, TX 75078 $555,701 2,897 平方英尺. 10,890 平方英尺. $192
2018-05-16 独户式别墅 Traditional 1200 Amistad Drive Prosper, TX 75078 $399,000 3,357 平方英尺. 10,019 平方英尺. $119
2018-05-16 独户式别墅 Traditional 3031 Sunny Hill Lane Prosper, TX 75078 $700,000 4,218 平方英尺. 13,068 平方英尺. $166
2018-05-16 独户式别墅 Traditional 400 Lake Trail Lane Prosper, TX 75078 $475,641 2,833 平方英尺. 10,019 平方英尺. $168
2018-05-16 独户式别墅 Traditional 741 Drummond Drive Prosper, TX 75078 $551,950 3,545 平方英尺. 7,841 平方英尺. $156
2018-05-16 独户式别墅 Traditional 600 Timber Ridge Road Prosper, TX 75078 $457,653 3,450 平方英尺. 10,019 平方英尺. $133
2018-05-16 独户式别墅 Traditional 3930 Sweet Clover Prosper, TX 75078 $463,730 2,352 平方英尺. 8,276 平方英尺. $197
2018-05-16 独户式别墅 Traditional 16500 Toledo Bend Court Prosper, TX 75078 $325,000 2,424 平方英尺. 5,663 平方英尺. $134
2018-05-15 独户式别墅 Traditional 2402 Crown Colony Circle Prosper, TX 75078 $410,000 2,360 平方英尺. 48,787 平方英尺. $174
2018-05-15 独户式别墅 Traditional 1912 Artesia Boulevard Prosper, TX 75078 $399,990 2,519 平方英尺. $159
2018-05-15 独户式别墅 Contemporary/Modern 1930 Harvard Avenue Prosper, TX 75078 $638,702 3,349 平方英尺. 10,890 平方英尺. $191
2018-05-15 独户式别墅 Traditional 1940 Harvard Avenue Prosper, TX 75078 $602,551 3,118 平方英尺. 10,890 平方英尺. $193
2018-05-14 独户式别墅 Traditional 931 Cliff Creek Drive Prosper, TX 75078 $927,900 4,438 平方英尺. $209
2018-05-14 独户式别墅 Traditional 207 7th Street Prosper, TX 75078 $170,000 1,075 平方英尺. 13,939 平方英尺. $158
2018-05-12 独户式别墅 Traditional 911 Cliff Creek Drive Prosper, TX 75078 $921,000 4,953 平方英尺. $186
2018-05-12 独户式别墅 Traditional 261 Tahoe Drive Prosper, TX 75078 $449,900 2,945 平方英尺. 12,197 平方英尺. $153
2018-05-11 独户式别墅 Craftsman 16428 Toledo Bend Court Prosper, TX 75078 $339,500 2,701 平方英尺. 5,663 平方英尺. $126
2018-05-11 独户式别墅 Traditional 751 Ivy Glen Court Prosper, TX 75078 $722,900 4,234 平方英尺. $171
2018-05-11 独户式别墅 Traditional 911 Fox Ridge Trail Prosper, TX 75078 $398,000 2,835 平方英尺. 9,148 平方英尺. $140
2018-05-11 独户式别墅 Traditional 1530 Meadow Run Drive Prosper, TX 75078 $415,000 3,269 平方英尺. 13,504 平方英尺. $127
2018-05-11 独户式别墅 Traditional 5500 Manitou Drive Prosper, TX 75078 $270,000 2,338 平方英尺. 7,841 平方英尺. $115
2018-05-11 独户式别墅 English 1040 Crystal Falls Drive Prosper, TX 75078 $499,900 3,836 平方英尺. 7,405 平方英尺. $130
2018-05-10 独户式别墅 Traditional 1831 Cypress Lake Lane Prosper, TX 75078 $549,900 4,097 平方英尺. 13,939 平方英尺. $134
2018-05-10 独户式别墅 16521 Amistad Avenue Prosper, TX 75078 $353,000 2,885 平方英尺. 6,534 平方英尺. $122
2018-05-10 独户式别墅 Traditional 830 Trail Drive Prosper, TX 75078 $400,000 3,723 平方英尺. 19,166 平方英尺. $107
2018-05-10 独户式别墅 Traditional 900 Ridgecross Road Prosper, TX 75078 $385,000 3,032 平方英尺. 11,326 平方英尺. $127
2018-05-10 独户式别墅 Traditional 638 Creek View Drive Prosper, TX 75078 $469,950 3,340 平方英尺. 13,504 平方英尺. $141
2018-05-10 独户式别墅 Traditional 1451 Meadow Run Drive Prosper, TX 75078 $435,000 3,211 平方英尺. 10,019 平方英尺. $135
2018-05-10 独户式别墅 Traditional 2620 Glen Haven Court Prosper, TX 75078 $424,995 3,932 平方英尺. 8,276 平方英尺. $108
2018-05-10 独户式别墅 Traditional 1140 Broken Bend Drive Prosper, TX 75078 $619,900 4,603 平方英尺. 11,326 平方英尺. $135
2018-05-09 独户式别墅 Traditional 751 Drummond Drive Prosper, TX 75078 $542,045 3,401 平方英尺. 7,841 平方英尺. $159
2018-05-09 独户式别墅 Traditional 751 Alton Drive Prosper, TX 75078 $600,000 3,473 平方英尺. 12,632 平方英尺. $173
2018-05-09 独户式别墅 Traditional 1601 Sweetwater Lane Prosper, TX 75078 $653,331 4,864 平方英尺. 14,375 平方英尺. $134
2018-05-09 独户式别墅 Traditional 1001 Grassy Shore Lane Prosper, TX 75078 $594,000 3,770 平方英尺. 8,276 平方英尺. $158
2018-05-09 独户式别墅 Traditional 1620 Whispering Meadows Way Prosper, TX 75078 $870,000 4,876 平方英尺. 37,897 平方英尺. $178
2018-05-09 独户式别墅 811 Red Fox Drive Prosper, TX 75078 $352,000 2,571 平方英尺. 7,405 平方英尺. $137
2018-05-09 独户式别墅 Traditional 16621 Amistad Avenue Prosper, TX 75078 $319,000 2,144 平方英尺. 6,970 平方英尺. $149
2018-05-09 独户式别墅 Traditional 2013 Commons Way Prosper, TX 75078 $416,750 2,957 平方英尺. 8,712 平方英尺. $141
2018-05-09 独户式别墅 Traditional 2009 Hubbard Park Prosper, TX 75078 $450,375 3,279 平方英尺. 6,098 平方英尺. $137
2018-05-09 独户式别墅 700 Butchart Drive Prosper, TX 75078 $489,900 3,925 平方英尺. 10,019 平方英尺. $125
2018-05-09 独户式别墅 Traditional 810 Gray Wolf Drive Prosper, TX 75078 $369,877 3,378 平方英尺. 6,970 平方英尺. $110
2018-05-09 独户式别墅 Traditional 360 Darian Drive Prosper, TX 75078 $429,000 2,926 平方英尺. 10,019 平方英尺. $147
2018-05-09 独户式别墅 Craftsman 1904 Crown Colony Drive Prosper, TX 75078 $298,000 2,031 平方英尺. 5,663 平方英尺. $147
2018-05-08 独户式别墅 Traditional 310 Lake Trail Lane Prosper, TX 75078 $500,000 3,001 平方英尺. 10,019 平方英尺. $167
2018-05-08 独户式别墅 Traditional 1050 Crystal Falls Drive Prosper, TX 75078 $400,000 3,178 平方英尺. 7,405 平方英尺. $126
2018-05-08 独户式别墅 Traditional 16204 Stillhouse Hollow Court Prosper, TX 75078 $300,000 2,143 平方英尺. 6,534 平方英尺. $140
2018-05-07 独户式别墅 Traditional 930 Windrock Lane Prosper, TX 75078 $626,657 3,741 平方英尺. 10,019 平方英尺. $168
2018-05-07 独户式别墅 Traditional 16433 Toledo Bend Ct Prosper, TX 75078 $275,000 1,614 平方英尺. 5,663 平方英尺. $170
2018-05-07 独户式别墅 Traditional 240 Booker Court Prosper, TX 75078 $719,900 3,589 平方英尺. 20,909 平方英尺. $201
2018-05-07 独户式别墅 Traditional 2310 Nocona Drive Prosper, TX 75078 $549,900 4,366 平方英尺. 10,890 平方英尺. $126
2018-05-07 独户式别墅 Traditional 1711 Highland Meadows Drive Prosper, TX 75078 $699,000 3,599 平方英尺. 43,996 平方英尺. $194
2018-05-07 独户式别墅 Traditional 16040 Crosslake Court Prosper, TX 75078 $238,900 1,442 平方英尺. 5,663 平方英尺. $166
2018-05-07 独户式别墅 Traditional 630 Ashbury Lane Prosper, TX 75078 $470,708 2,519 平方英尺. 7,405 平方英尺. $187
2018-05-07 独户式别墅 Traditional 1580 Star Creek Drive Prosper, TX 75078 $463,977 2,100 平方英尺. 9,583 平方英尺. $221
2018-05-07 独户式别墅 Traditional 16705 Stillhouse Hollow Court Prosper, TX 75078 $400,000 3,549 平方英尺. 5,663 平方英尺. $113
2018-05-06 独户式别墅 Traditional 4220 Paddock Lane Prosper, TX 75078 $649,900 3,998 平方英尺. $163
2018-05-06 独户式别墅 Traditional 1550 Thackery Lane Prosper, TX 75078 $585,387 4,172 平方英尺. 14,375 平方英尺. $140
2018-05-06 独户式别墅 Traditional 1000 Willowmist Drive Prosper, TX 75078 $539,900 4,096 平方英尺. 11,326 平方英尺. $132
2018-05-06 独户式别墅 Traditional 1701 Cypress Lake Lane Prosper, TX 75078 $659,010 4,872 平方英尺. 14,375 平方英尺. $135
2018-05-06 独户式别墅 Traditional 180 Godstone Lane Prosper, TX 75078 $523,447 4,281 平方英尺. 10,890 平方英尺. $122
2018-05-06 独户式别墅 181 Godstone Lane Prosper, TX 75078 $503,511 3,493 平方英尺. 10,890 平方英尺. $144
2018-05-06 独户式别墅 Traditional 160 Godstone Lane Prosper, TX 75078 $526,656 4,308 平方英尺. 10,890 平方英尺. $122
2018-05-06 独户式别墅 Traditional 400 Columbia Court Prosper, TX 75078 $775,000 3,563 平方英尺. 14,375 平方英尺. $218
2018-05-06 独户式别墅 Traditional 840 Allen Street Prosper, TX 75078 $629,900 4,333 平方英尺. 22,651 平方英尺. $145
2018-05-06 独户式别墅 Traditional 1031 Cliff Creek Drive Prosper, TX 75078 $825,990 4,651 平方英尺. $178
2018-05-06 独户式别墅 Traditional 140 Lamond Court Prosper, TX 75078 $551,144 3,860 平方英尺. $143
2018-05-06 独户式别墅 Traditional 3201 Amberwood Lane Prosper, TX 75078 $2,250,000 9,004 平方英尺. 144,619 平方英尺. $250
2018-05-06 独户式别墅 Traditional 841 Greenbriar Lane Prosper, TX 75078 $617,650 3,628 平方英尺. 9,148 平方英尺. $170
2018-05-06 独户式别墅 Traditional 1021 Three Rivers Drive Prosper, TX 75078 $625,000 4,740 平方英尺. 20,909 平方英尺. $132
2018-05-06 独户式别墅 Traditional 741 Hawthorn Drive Prosper, TX 75078 $520,000 3,350 平方英尺. 13,068 平方英尺. $155
2018-05-06 独户式别墅 1060 White Crest Lane Prosper, TX 75078 $639,000 4,335 平方英尺. 12,197 平方英尺. $147
2018-05-06 独户式别墅 Traditional 2630 Overbrook Lane Prosper, TX 75078 $649,900 4,594 平方英尺. 12,197 平方英尺. $141
2018-05-06 独户式别墅 Traditional 2860 Meadow Ridge Drive Prosper, TX 75078 $559,900 4,278 平方英尺. 12,632 平方英尺. $131
2018-05-06 独户式别墅 Traditional 751 Ridgecross Road Prosper, TX 75078 $519,900 4,204 平方英尺. 10,454 平方英尺. $124
2018-05-06 独户式别墅 Traditional 830 Moss Glen Drive Prosper, TX 75078 $549,900 3,566 平方英尺. 12,197 平方英尺. $154
2018-05-06 独户式别墅 Mediterranean; Traditional 4221 Glacier Point Court Prosper, TX 75078 $1,825,000 6,176 平方英尺. 24,394 平方英尺. $296
2018-05-06 独户式别墅 Ranch; Traditional 1951 Coyote Run Prosper, TX 75078 $649,000 4,091 平方英尺. 15,682 平方英尺. $159
2018-05-06 独户式别墅 Traditional 261 Saint Mark Lane Prosper, TX 75078 $549,900 4,444 平方英尺. 10,890 平方英尺. $124
2018-05-06 独户式别墅 Mid-Century Modern; Traditional 1241 Concho Trail Prosper, TX 75078 $875,000 5,120 平方英尺. 19,166 平方英尺. $171
2018-05-06 独户式别墅 Traditional 3000 Sunny Hill Lane Prosper, TX 75078 $719,000 4,335 平方英尺. 12,197 平方英尺. $166
2018-05-06 独户式别墅 Traditional 5600 Stockport Drive Prosper, TX 75078 $319,000 2,908 平方英尺. 7,405 平方英尺. $110
2018-05-06 独户式别墅 Traditional 240 Godstone Lane Prosper, TX 75078 $443,148 2,093 平方英尺. 10,890 平方英尺. $212
2018-05-06 独户式别墅 Traditional 440 Darian Drive Prosper, TX 75078 $418,892 2,540 平方英尺. 10,890 平方英尺. $165
2018-05-06 独户式别墅 Traditional 420 Darian Drive Prosper, TX 75078 $411,605 2,510 平方英尺. 10,019 平方英尺. $164
2018-05-06 独户式别墅 Traditional 181 Lamond Court Prosper, TX 75078 $407,552 2,510 平方英尺. 10,019 平方英尺. $162
2018-05-06 独户式别墅 Traditional 1250 Packsaddle Trail Prosper, TX 75078 $489,900 3,750 平方英尺. 10,890 平方英尺. $131
2018-05-06 独户式别墅 Traditional 1141 Amistad Drive Prosper, TX 75078 $419,000 3,117 平方英尺. 11,761 平方英尺. $134
2018-05-06 独户式别墅 Traditional 1241 Cedar Lake Prosper, TX 75078 $395,000 2,993 平方英尺. 13,504 平方英尺. $132
2018-05-06 独户式别墅 Traditional 16405 White Rock Boulevard Prosper, TX 75078 $315,999 2,143 平方英尺. 5,663 平方英尺. $147
2018-05-06 独户式别墅 1513 Paley Park Drive Prosper, TX 75078 $424,958 3,798 平方英尺. 5,663 平方英尺. $112
2018-05-06 独户式别墅 Traditional 16201 White Rock Boulevard Prosper, TX 75078 $349,900 3,076 平方英尺. 8,712 平方英尺. $114
2018-05-06 独户式别墅 Traditional 711 Table Rock Drive Prosper, TX 75078 $429,900 3,624 平方英尺. 12,632 平方英尺. $119
2018-05-06 独户式别墅 Traditional 3920 Prairie Clover Prosper, TX 75078 $493,330 2,486 平方英尺. 8,276 平方英尺. $198
2018-05-06 独户式别墅 1620 Lakemere Drive Prosper, TX 75078 $479,900 3,801 平方英尺. 14,375 平方英尺. $126
2018-05-06 独户式别墅 Traditional 141 Gray Lane Prosper, TX 75078 $425,000 2,925 平方英尺. 14,375 平方英尺. $145
2018-05-06 独户式别墅 Traditional 200 Crown Colony Drive Prosper, TX 75078 $349,900 2,290 平方英尺. 11,761 平方英尺. $153
2018-04-25 独户式别墅 Traditional 730 Ivy Glen Court Prosper, TX 75078 $691,900 4,074 平方英尺. $170
2018-04-25 独户式别墅 Traditional 2013 Sutton Park Avenue Prosper, TX 75078 $410,490 2,981 平方英尺. $138
2018-04-25 独户式别墅 1308 Corona Court Prosper, TX 75078 $325,000 2,423 平方英尺. 7,841 平方英尺. $134
2018-04-25 独户式别墅 Traditional 1250 Saddle Creek Drive Prosper, TX 75078 $545,000 3,887 平方英尺. 10,890 平方英尺. $140
2018-04-24 独户式别墅 Traditional 2230 Arbol Way Prosper, TX 75078 $514,900 3,763 平方英尺. 10,019 平方英尺. $137
2018-04-24 独户式别墅 Traditional 3900 White Clover Lane Prosper, TX 75078 $597,386 3,637 平方英尺. 6,534 平方英尺. $164
2018-04-24 独户式别墅 Traditional 930 Mountain Laurel Drive Prosper, TX 75078 $566,963 3,221 平方英尺. 6,534 平方英尺. $176
2018-04-24 独户式别墅 Traditional 720 Salt Lake Court Prosper, TX 75078 $415,000 3,593 平方英尺. 16,988 平方英尺. $116
2018-04-24 独户式别墅 620 Katelyn Avenue Prosper, TX 75078 $436,720 2,248 平方英尺. 7,405 平方英尺. $194
2018-04-24 独户式别墅 Traditional 831 Ridgecross Road Prosper, TX 75078 $454,900 3,826 平方英尺. 10,890 平方英尺. $119
2018-04-23 独户式别墅 620 Sondra Circle Prosper, TX 75078 $324,900 2,550 平方英尺. 15,682 平方英尺. $127
2018-04-23 独户式别墅 Traditional 1309 Corona Court Prosper, TX 75078 $399,900 3,182 平方英尺. 8,276 平方英尺. $126
2018-04-22 独户式别墅 Traditional 4270 Mesa Drive Prosper, TX 75078 $543,000 3,649 平方英尺. 10,019 平方英尺. $149
2018-04-21 独户式别墅 Traditional 1730 Star Trace Parkway Prosper, TX 75078 $638,857 3,618 平方英尺. 13,068 平方英尺. $177
2018-04-21 独户式别墅 Traditional 2151 Lavaca Prosper, TX 75078 $429,900 3,253 平方英尺. 10,019 平方英尺. $132
2018-04-21 独户式别墅 Traditional 16336 Toledo Bend Court Prosper, TX 75078 $325,000 2,701 平方英尺. 5,663 平方英尺. $120
2018-04-20 独户式别墅 Traditional 16301 White Rock Boulevard Prosper, TX 75078 $320,000 2,423 平方英尺. 5,663 平方英尺. $132
2018-04-20 独户式别墅 Traditional 730 Red Fox Drive Prosper, TX 75078 $360,997 2,552 平方英尺. 7,405 平方英尺. $141
2018-04-20 独户式别墅 Traditional 590 Willow Ridge Circle Prosper, TX 75078 $538,500 4,253 平方英尺. 16,117 平方英尺. $127
2018-04-20 独户式别墅 2321 Cold Water Drive Prosper, TX 75078 $625,000 4,280 平方英尺. 16,988 平方英尺. $146
2018-04-19 独户式别墅 740 Whitney Court Prosper, TX 75078 $389,988 3,593 平方英尺. 13,939 平方英尺. $109
2018-04-19 独户式别墅 Traditional 931 Bridgeport Lane Prosper, TX 75078 $425,000 4,070 平方英尺. 12,632 平方英尺. $104
2018-04-19 独户式别墅 Traditional 4461 Crossvine Drive Prosper, TX 75078 $424,900 2,629 平方英尺. 9,148 平方英尺. $162
2018-04-19 独户式别墅 Traditional 3990 Marigold Lane Prosper, TX 75078 $646,188 3,912 平方英尺. 6,534 平方英尺. $165
2018-04-19 独户式别墅 Traditional 3930 Marigold Lane Prosper, TX 75078 $548,030 3,156 平方英尺. 6,534 平方英尺. $174
2018-04-19 独户式别墅 Traditional 3511 Amberwood Lane Prosper, TX 75078 $1,299,000 5,256 平方英尺. 217,800 平方英尺. $247
2018-04-19 独户式别墅 Traditional 2211 Palo Duro Drive Prosper, TX 75078 $456,900 3,891 平方英尺. 10,019 平方英尺. $117
2018-04-19 独户式别墅 Traditional 1170 Olympia Lane Prosper, TX 75078 $589,951 3,914 平方英尺. $151
2018-04-19 独户式别墅 Traditional 1160 Olympia Lane Prosper, TX 75078 $551,286 3,929 平方英尺. $140
2018-04-19 独户式别墅 Traditional 5740 Crestwood Drive Prosper, TX 75078 $314,900 2,997 平方英尺. 7,405 平方英尺. $105
2018-04-19 独户式别墅 Traditional 4231 Blue Sage Drive Prosper, TX 75078 $550,000 3,388 平方英尺. 6,534 平方英尺. $162
2018-04-19 独户式别墅 760 Hunters Place Prosper, TX 75078 $598,500 4,195 平方英尺. 11,326 平方英尺. $143
2018-04-18 独户式别墅 French 1241 Clipston Drive Prosper, TX 75078 $739,000 4,656 平方英尺. 13,068 平方英尺. $159
2018-04-18 独户式别墅 Traditional 1401 Monticello Drive Prosper, TX 75078 $450,000 3,914 平方英尺. 21,780 平方英尺. $115
2018-04-18 独户式别墅 French 1931 Vanderbilt Drive Prosper, TX 75078 $735,000 4,328 平方英尺. 11,326 平方英尺. $170
2018-04-18 独户式别墅 Ranch 4350 Woodbine Lane Prosper, TX 75078 $879,900 4,935 平方英尺. 12,197 平方英尺. $178
2018-04-18 独户式别墅 Traditional 1305 Coleto Creek Trail Prosper, TX 75078 $386,079 2,702 平方英尺. 5,663 平方英尺. $143
2018-04-18 独户式别墅 Traditional 431 Hampshire Drive Prosper, TX 75078 $469,900 3,175 平方英尺. 9,148 平方英尺. $148
2018-04-17 独户式别墅 5701 Stockport Drive Prosper, TX 75078 $270,000 1,862 平方英尺. 6,098 平方英尺. $145
2018-04-17 独户式别墅 Traditional 881 Mountain Laurel Prosper, TX 75078 $523,400 3,636 平方英尺. 8,712 平方英尺. $144
2018-04-17 独户式别墅 Traditional 3991 Pine Leaf Prosper, TX 75078 $537,682 3,436 平方英尺. 8,712 平方英尺. $156
2018-04-17 独户式别墅 Traditional 3940 White Clover Prosper, TX 75078 $529,625 3,487 平方英尺. 8,712 平方英尺. $152
2018-04-17 独户式别墅 Traditional 4040 Feathergrass Prosper, TX 75078 $456,560 2,617 平方英尺. 7,841 平方英尺. $174
2018-04-17 独户式别墅 Traditional 4250 Paddock Lane Prosper, TX 75078 $598,900 3,278 平方英尺. $183
2018-04-17 独户式别墅 Mediterranean 721 Star Meadow Prosper, TX 75078 $876,902 4,484 平方英尺. 11,326 平方英尺. $196
2018-04-17 独户式别墅 Spanish 811 Ivy Glen Court Prosper, TX 75078 $866,532 4,474 平方英尺. 10,454 平方英尺. $194
2018-04-17 独户式别墅 Tudor 811 Country Brook Lane Prosper, TX 75078 $750,000 4,130 平方英尺. 10,890 平方英尺. $182
2018-04-17 独户式别墅 Traditional; Victorian 731 Star Meadow Drive Prosper, TX 75078 $822,369 4,810 平方英尺. 10,890 平方英尺. $171
2018-04-17 独户式别墅 Traditional 730 Star Meadow Drive Prosper, TX 75078 $829,074 4,741 平方英尺. 11,761 平方英尺. $175
2018-04-17 独户式别墅 Traditional 16613 Toledo Bend Court Prosper, TX 75078 $329,900 2,831 平方英尺. 6,534 平方英尺. $117
2018-04-14 独户式别墅 Traditional 1530 Lonesome Dove Drive Prosper, TX 75078 $675,000 3,793 平方英尺. 13,504 平方英尺. $178
2018-04-14 独户式别墅 Tudor 2220 Country Brook Lane Prosper, TX 75078 $790,000 4,065 平方英尺. 13,939 平方英尺. $194
2018-04-14 独户式别墅 Traditional 202 6th Street Prosper, TX 75078 $234,900 1,330 平方英尺. 11,326 平方英尺. $177
2018-04-13 独户式别墅 16512 Dry Creek Boulevard Prosper, TX 75078 $299,000 1,874 平方英尺. 6,098 平方英尺. $160
2018-04-13 独户式别墅 521 Willow Run Prosper, TX 75078 $399,500 2,506 平方英尺. 11,326 平方英尺. $159
2018-04-13 独户式别墅 16616 Toledo Bend Court Prosper, TX 75078 $372,225 3,058 平方英尺. 5,663 平方英尺. $122
2018-04-13 独户式别墅 Traditional 891 Willowgate Drive Prosper, TX 75078 $565,000 4,162 平方英尺. 11,326 平方英尺. $136
2018-04-13 独户式别墅 Traditional 1520 Silent Brook Drive Prosper, TX 75078 $550,000 3,903 平方英尺. 10,454 平方英尺. $141
2018-04-13 独户式别墅 Traditional 1817 Commons Way Prosper, TX 75078 $514,000 4,128 平方英尺. 8,276 平方英尺. $125
2018-04-13 独户式别墅 Traditional 750 Evening Sun Drive Prosper, TX 75078 $439,900 3,217 平方英尺. 9,148 平方英尺. $137
2018-04-12 独户式别墅 Traditional 201 Ridge Trail Prosper, TX 75078 $445,000 3,001 平方英尺. 10,454 平方英尺. $148
2018-04-12 独户式别墅 Craftsman; Ranch; Traditional 1701 Chisholm Trail Prosper, TX 75078 $526,381 2,761 平方英尺. 14,375 平方英尺. $191
2018-04-12 独户式别墅 Traditional 421 Travis Lane Prosper, TX 75078 $599,900 4,727 平方英尺. 13,939 平方英尺. $127
2018-04-12 独户式别墅 Traditional 830 Star Meadow Drive Prosper, TX 75078 $721,900 4,208 平方英尺. $172
2018-04-12 独户式别墅 Traditional 2771 Clarendon Court Prosper, TX 75078 $524,900 3,003 平方英尺. $175
2018-04-12 独户式别墅 Traditional 1341 Millers Creek Drive Prosper, TX 75078 $509,900 4,367 平方英尺. 10,019 平方英尺. $117
2018-04-12 独户式别墅 Traditional 181 Chapel Hill Drive Prosper, TX 75078 $462,500 4,336 平方英尺. 9,583 平方英尺. $107
2018-04-12 独户式别墅 Contemporary/Modern 4040 Brazoria Drive Prosper, TX 75078 $638,031 3,844 平方英尺. 436 平方英尺. $166
2018-04-12 独户式别墅 Traditional 1600 Post Oak Court Prosper, TX 75078 $789,900 4,002 平方英尺. 44,431 平方英尺. $197
2018-04-12 独户式别墅 Traditional 1010 Caribou Drive Prosper, TX 75078 $659,900 4,370 平方英尺. 16,988 平方英尺. $151
2018-04-12 独户式别墅 Traditional 1350 Tanglewood Court Prosper, TX 75078 $995,000 4,888 平方英尺. 29,185 平方英尺. $204
2018-04-12 独户式别墅 Traditional 12A Rhea Mills Circle Prosper, TX 75078 $389,900 2,257 平方英尺. 43,996 平方英尺. $173
2018-04-12 独户式别墅 Traditional 1310 Circle J Trail Prosper, TX 75078 $500,000 3,705 平方英尺. 11,326 平方英尺. $135
2018-04-12 独户式别墅 920 Greenbriar Prosper, TX 75078 $629,900 3,924 平方英尺. 21,780 平方英尺. $161
2018-04-12 独户式别墅 Traditional 1220 Cedar Lake Drive Prosper, TX 75078 $397,499 2,818 平方英尺. 10,890 平方英尺. $141
2018-04-11 独户式别墅 Traditional 400 Darian Drive Prosper, TX 75078 $397,777 2,573 平方英尺. 10,019 平方英尺. $155
2018-04-11 独户式别墅 Contemporary/Modern 4131 Woodbine Lane Prosper, TX 75078 $684,988 4,176 平方英尺. 436 平方英尺. $164
2018-04-11 独户式别墅 Traditional 2550 Stonybrook Drive Prosper, TX 75078 $500,000 4,691 平方英尺. 13,068 平方英尺. $107
2018-04-11 独户式别墅 Traditional 770 Calaveras Court Prosper, TX 75078 $476,900 3,781 平方英尺. 10,454 平方英尺. $126
2018-04-11 独户式别墅 Contemporary/Modern 4100 Woodbine Lane Prosper, TX 75078 $662,081 4,214 平方英尺. 436 平方英尺. $157
2018-04-11 独户式别墅 Traditional 281 Saint Mark Lane Prosper, TX 75078 $580,000 3,483 平方英尺. 10,890 平方英尺. $167
2018-04-11 独户式别墅 Traditional 241 Andover Lane Prosper, TX 75078 $520,158 4,042 平方英尺. 10,890 平方英尺. $129
2018-04-11 独户式别墅 Traditional 2301 Commons Way Prosper, TX 75078 $494,490 3,558 平方英尺. $139
2018-04-11 独户式别墅 Traditional 1904 Artesia Boulevard Prosper, TX 75078 $399,990 2,699 平方英尺. $148
2018-04-11 独户式别墅 Traditional 2109 Commons Way Prosper, TX 75078 $398,034 2,139 平方英尺. $186
2018-04-10 独户式别墅 Traditional 831 Nightwind Court Prosper, TX 75078 $415,000 2,627 平方英尺. $158
2018-04-10 独户式别墅 Traditional 341 Timber Ridge Road Prosper, TX 75078 $435,000 3,048 平方英尺. $143
2018-04-09 独户式别墅 Traditional 2020 Woodlawn Trail Prosper, TX 75078 $385,000 2,468 平方英尺. 10,890 平方英尺. $156
2018-04-08 独户式别墅 Traditional 1101 White Crest Lane Prosper, TX 75078 $529,900 3,413 平方英尺. 12,197 平方英尺. $155
2018-04-07 独户式别墅 Traditional 4241 San Juan Avenue Prosper, TX 75078 $1,299,000 4,832 平方英尺. 43,560 平方英尺. $269
2018-04-06 独户式别墅 Traditional 2751 Kingston Street Prosper, TX 75078 $499,900 2,965 平方英尺. $169
2018-04-06 独户式别墅 Traditional 1351 Wheatland Road Prosper, TX 75078 $940,000 3,768 平方英尺. 150,282 平方英尺. $249
2018-04-06 独户式别墅 Traditional 760 Arrowhead Drive Prosper, TX 75078 $467,490 4,237 平方英尺. 10,454 平方英尺. $110
2018-04-06 独户式别墅 Traditional 800 Essex Drive Prosper, TX 75078 $549,900 4,059 平方英尺. 14,375 平方英尺. $135
2018-04-06 独户式别墅 Traditional 701 Salada Drive Prosper, TX 75078 $489,900 3,812 平方英尺. 12,197 平方英尺. $129
2018-04-06 独户式别墅 Traditional 1310 Amistad Drive Prosper, TX 75078 $439,900 3,034 平方英尺. 10,019 平方英尺. $145
2018-04-05 独户式别墅 Traditional 560 Rock Hill Road Prosper, TX 75078 $584,900 4,160 平方英尺. 12,197 平方英尺. $141
2018-04-05 独户式别墅 Traditional 1040 Elk Ridge Road Prosper, TX 75078 $600,000 4,418 平方英尺. 25,265 平方英尺. $136
2018-04-05 独户式别墅 Traditional 1320 Blue Forest Drive Prosper, TX 75078 $795,000 4,714 平方英尺. 43,560 平方英尺. $169
2018-04-05 独户式别墅 Traditional 2631 Misty Meadow Drive Prosper, TX 75078 $874,000 5,344 平方英尺. 28,750 平方英尺. $164
2018-04-05 独户式别墅 Traditional 971 Deer Run Lane Prosper, TX 75078 $699,990 4,433 平方英尺. 15,246 平方英尺. $158
2018-04-05 独户式别墅 Traditional 2461 Greenspoint Prosper, TX 75078 $997,500 4,898 平方英尺. 44,431 平方英尺. $204
2018-04-05 独户式别墅 Traditional 780 Martin Creek Drive Prosper, TX 75078 $450,000 4,125 平方英尺. 11,326 平方英尺. $109
2018-04-04 独户式别墅 Traditional 4111 Paddock Lane Prosper, TX 75078 $615,900 3,273 平方英尺. $188
2018-04-04 独户式别墅 Traditional 2308 Commons Way Prosper, TX 75078 $448,445 2,876 平方英尺. 7,405 平方英尺. $156
2018-04-04 独户式别墅 Contemporary/Modern 1720 Star Trace Parkway Prosper, TX 75078 $694,429 4,346 平方英尺. 12,632 平方英尺. $160
2018-04-03 独户式别墅 Traditional 490 Cloud View Court Prosper, TX 75078 $550,000 4,734 平方英尺. 17,860 平方英尺. $116
2018-04-03 独户式别墅 Traditional 620 Evening Sun Drive Prosper, TX 75078 $469,000 4,115 平方英尺. 9,583 平方英尺. $114
2018-04-03 独户式别墅 Contemporary/Modern 16101 Harper Road Prosper, TX 75078 $335,000 1,874 平方英尺. 6,534 平方英尺. $179
2018-04-03 独户式别墅 Traditional 631 Sundance Court Prosper, TX 75078 $2,500,000 11,950 平方英尺. 134,600 平方英尺. $209
2018-04-02 独户式别墅 A-Frame; Craftsman; Traditional 761 Livingston Drive Prosper, TX 75078 $487,000 3,705 平方英尺. 11,326 平方英尺. $131
2018-04-02 独户式别墅 Traditional 1700 Gentle Way Prosper, TX 75078 $899,000 5,129 平方英尺. 60,548 平方英尺. $175
2018-04-02 独户式别墅 Traditional 890 Greenbriar Lane Prosper, TX 75078 $597,099 4,020 平方英尺. 10,890 平方英尺. $149
2018-04-02 独户式别墅 Traditional 2204 Sutton Park Avenue Prosper, TX 75078 $449,895 3,077 平方英尺. 7,841 平方英尺. $146
2018-04-02 独户式别墅 Traditional 2761 Meadow Ridge Drive Prosper, TX 75078 $449,000 3,672 平方英尺. 8,276 平方英尺. $122
2018-04-02 独户式别墅 1191 Pasewark Circle Prosper, TX 75078 $510,000 2,916 平方英尺. 87,120 平方英尺. $175
2018-04-02 独户式别墅 1050 Pasewark Circle Prosper, TX 75078 $495,000 2,044 平方英尺. 108,900 平方英尺. $242
2018-04-01 独户式别墅 Traditional 800 Butchart Drive Prosper, TX 75078 $430,000 3,593 平方英尺. 9,583 平方英尺. $120
2018-03-30 独户式别墅 15617 Piedmont Park Drive Prosper, TX 75078 $410,000 3,037 平方英尺. 6,098 平方英尺. $135
2018-03-30 独户式别墅 Traditional 1261 Somerset Way Prosper, TX 75078 $439,000 3,673 平方英尺. 11,326 平方英尺. $120
2018-03-30 独户式别墅 Traditional 2920 Vista View Lane Prosper, TX 75078 $925,000 4,761 平方英尺. 43,996 平方英尺. $194
2018-03-30 独户式别墅 1301 Brittany Way Prosper, TX 75078 $449,500 3,828 平方英尺. 13,939 平方英尺. $117
2018-03-30 独户式别墅 Traditional 820 Kiowa Drive Prosper, TX 75078 $565,000 4,159 平方英尺. 12,197 平方英尺. $136
2018-03-30 独户式别墅 3391 Briarcliff Drive Prosper, TX 75078 $763,727 4,258 平方英尺. 10,890 平方英尺. $179
2018-03-30 独户式别墅 Traditional 260 Wilson Drive Prosper, TX 75078 $445,000 3,269 平方英尺. 10,890 平方英尺. $136
2018-03-29 独户式别墅 Traditional 3511 Newport Drive Prosper, TX 75078 $699,990 4,618 平方英尺. $152
2018-03-29 独户式别墅 Traditional 3430 Beechwood Drive Prosper, TX 75078 $692,990 4,346 平方英尺. $159
2018-03-29 独户式别墅 540 Glen Canyon Drive Prosper, TX 75078 $800,209 4,363 平方英尺. 10,890 平方英尺. $183
2018-03-29 独户式别墅 3470 Newport Drive Prosper, TX 75078 $740,098 4,314 平方英尺. 10,890 平方英尺. $172
2018-03-29 独户式别墅 Traditional 15813 High Line Drive Prosper, TX 75078 $329,900 2,238 平方英尺. 5,663 平方英尺. $147
2018-03-29 独户式别墅 Contemporary/Modern; Traditional Prosper, TX $584,900 4,337 平方英尺. 10,454 平方英尺. $135
2018-03-29 独户式别墅 Traditional 820 Rock Hill Road Prosper, TX 75078 $480,000 2,868 平方英尺. 11,761 平方英尺. $167
2018-03-28 独户式别墅 Traditional 741 Logans Way Drive Prosper, TX 75078 $499,000 3,758 平方英尺. 16,988 平方英尺. $133
2018-03-28 独户式别墅 900 Saint Peter Lane Prosper, TX 75078 $505,080 2,861 平方英尺. 14,375 平方英尺. $177
2018-03-28 独户式别墅 880 Saint Peter Lane Prosper, TX 75078 $540,587 3,145 平方英尺. 14,375 平方英尺. $172
2018-03-27 独户式别墅 Traditional 4211 Pine Needle Court Prosper, TX 75078 $769,900 5,276 平方英尺. 13,939 平方英尺. $146
2018-03-27 独户式别墅 Traditional 2004 Sutton Park Avenue Prosper, TX 75078 $455,195 3,479 平方英尺. 6,970 平方英尺. $131
2018-03-27 独户式别墅 Traditional 2020 Long Park Avenue Prosper, TX 75078 $379,235 2,399 平方英尺. 6,970 平方英尺. $158
2018-03-26 独户式别墅 306 Broadway Street Prosper, TX 75078 $274,000 1,882 平方英尺. 19,602 平方英尺. $146
2018-03-25 独户式别墅 Tudor 2200 Country Brook Lane Prosper, TX 75078 $740,000 3,476 平方英尺. 13,068 平方英尺. $213
2018-03-23 独户式别墅 16616 Amistad Avenue Prosper, TX 75078 $325,000 1,928 平方英尺. 6,534 平方英尺. $169
2018-03-23 独户式别墅 Traditional 800 Red Fox Drive Prosper, TX 76227 $349,990 2,860 平方英尺. 6,970 平方英尺. $122
2018-03-23 独户式别墅 Traditional 831 Echo Drive Prosper, TX 75078 $639,000 4,749 平方英尺. 13,068 平方英尺. $135
2018-03-23 独户式别墅 Traditional 5410 Mustang Lane Prosper, TX 75078 $328,084 2,192 平方英尺. 6,970 平方英尺. $150
2018-03-23 独户式别墅 Traditional 2211 Arbol Way Prosper, TX 75078 $589,000 4,924 平方英尺. 10,890 平方英尺. $120
2018-03-23 独户式别墅 Traditional 601 Logans Way Drive Prosper, TX 75078 $425,000 2,881 平方英尺. 12,632 平方英尺. $148
2018-03-22 独户式别墅 Mediterranean 3140 Brookhollow Court Prosper, TX 75078 $1,650,000 7,904 平方英尺. 93,218 平方英尺. $209
2018-03-22 独户式别墅 3070 Westminster Drive Prosper, TX 75078 $415,000 2,902 平方英尺. 9,148 平方英尺. $143
2018-03-22 独户式别墅 Traditional 16208 Stillhouse Hollow Court Prosper, TX 75078 $348,500 2,948 平方英尺. 7,405 平方英尺. $118
2018-03-21 独户式别墅 Traditional 941 Woodview Drive Prosper, TX 75078 $1,150,000 5,909 平方英尺. 43,560 平方英尺. $195
2018-03-21 独户式别墅 Traditional 2861 Hyde Court Prosper, TX 75078 $524,900 3,003 平方英尺. $175
2018-03-21 独户式别墅 Traditional 2791 Langley Way Prosper, TX 75078 $549,900 3,278 平方英尺. $168
2018-03-21 独户式别墅 A-Frame 16505 Dry Creek Boulevard Prosper, TX 75078 $269,900 1,623 平方英尺. 5,663 平方英尺. $166
2018-03-20 独户式别墅 1411 Rainier Drive Prosper, TX 75078 $795,000 4,874 平方英尺. 33,977 平方英尺. $163
2018-03-20 独户式别墅 Tudor 730 Biltmore Lane Prosper, TX 75078 $725,000 4,004 平方英尺. 10,890 平方英尺. $181
2018-03-20 独户式别墅 Traditional 1321 Coleto Creek Trail Prosper, TX 75078 $399,078 3,008 平方英尺. 5,663 平方英尺. $133
2018-03-20 独户式别墅 Traditional 15928 Holly Creek Prosper, TX 75078 $399,758 3,008 平方英尺. 5,663 平方英尺. $133
2018-03-20 独户式别墅 Traditional 16001 Gladewater Terrace Prosper, TX 75078 $398,801 2,457 平方英尺. 5,663 平方英尺. $162
2018-03-20 独户式别墅 Traditional 861 Allen Street Prosper, TX 75078 $539,000 2,374 平方英尺. 18,731 平方英尺. $227
2018-03-19 独户式别墅 Traditional 800 Manchester Avenue Prosper, TX 75078 $520,522 3,921 平方英尺. 10,890 平方英尺. $133
2018-03-19 独户式别墅 Traditional 4080 Chimney Rock Drive Prosper, TX 75078 $850,000 5,111 平方英尺. 12,632 平方英尺. $166
2018-03-19 独户式别墅 Traditional 1600 Harvest Ridge Lane Prosper, TX 75078 $1,150,000 5,513 平方英尺. 212,573 平方英尺. $209
2018-03-18 独户式别墅 Traditional 2012 Long Park Avenue Prosper, TX 75078 $431,829 2,981 平方英尺. $145
2018-03-17 独户式别墅 Traditional 3701 Glacier Point Court Prosper, TX 75078 $819,990 4,346 平方英尺. $189
2018-03-16 独户式别墅 Traditional 741 Arrowhead Drive Prosper, TX 75078 $524,900 4,409 平方英尺. 13,068 平方英尺. $119
2018-03-16 独户式别墅 1601 Quail Creek Lane Prosper, TX 75078 $637,810 3,669 平方英尺. 20,909 平方英尺. $174
2018-03-16 独户式别墅 Contemporary/Modern; Traditional 1801 Gentle Way Prosper, TX 75078 $879,950 3,656 平方英尺. 52,272 平方英尺. $241
2018-03-16 独户式别墅 1701 Birdsong Lane Prosper, TX 75078 $485,430 2,803 平方英尺. 10,019 平方英尺. $173
2018-03-16 独户式别墅 2921 Cannon Drive Prosper, TX 75078 $549,990 3,948 平方英尺. 10,890 平方英尺. $139
2018-03-15 独户式别墅 Traditional 1413 Palestine Drive Prosper, TX 75078 $359,900 3,487 平方英尺. 7,841 平方英尺. $103
2018-03-15 独户式别墅 Traditional 2520 Greenspoint Prosper, TX 75078 $799,999 4,393 平方英尺. 20,473 平方英尺. $182
2018-03-15 独户式别墅 Traditional 941 Drummond Drive Prosper, TX 75078 $608,379 3,445 平方英尺. 13,068 平方英尺. $177
2018-03-15 独户式别墅 Traditional 1721 Cypress Lake Lane Prosper, TX 75078 $587,144 4,165 平方英尺. 14,375 平方英尺. $141
2018-03-15 独户式别墅 Traditional 1731 Cypress Lake Lane Prosper, TX 75078 $634,596 4,864 平方英尺. 14,375 平方英尺. $130
2018-03-15 独户式别墅 Traditional 1700 Medina Lane Prosper, TX 75078 $329,900 2,462 平方英尺. 5,663 平方英尺. $134
2018-03-15 独户式别墅 Traditional 800 Willowmist Drive Prosper, TX 75078 $482,800 4,096 平方英尺. 12,632 平方英尺. $118
2018-03-14 独户式别墅 Traditional 1940 Thackery Lane Prosper, TX 75078 $617,775 4,276 平方英尺. 14,375 平方英尺. $144
2018-03-14 独户式别墅 Traditional 1730 Mountain Creek Lane Prosper, TX 75078 $594,172 4,298 平方英尺. 14,375 平方英尺. $138
2018-03-14 独户式别墅 Traditional 1951 Thackery Lane Prosper, TX 75078 $688,888 5,457 平方英尺. 14,375 平方英尺. $126
2018-03-14 独户式别墅 Traditional 2116 Grant Park Way Prosper, TX 75078 $389,900 3,429 平方英尺. 6,534 平方英尺. $114
2018-03-14 独户式别墅 Traditional 811 Star Meadow Drive Prosper, TX 75078 $624,900 3,273 平方英尺. $191
2018-03-14 独户式别墅 Mediterranean 400 Whitley Place Drive Prosper, TX 75078 $1,250,000 5,400 平方英尺. 32,234 平方英尺. $231
2018-03-14 独户式别墅 Traditional 751 Dover Drive Prosper, TX 75078 $448,577 2,760 平方英尺. 6,970 平方英尺. $163
2018-03-13 独户式别墅 Traditional 2005 Georgetown Boulevard Prosper, TX 75078 $449,250 3,462 平方英尺. 7,841 平方英尺. $130
2018-03-13 独户式别墅 Traditional 2761 Meadowbrook Boulevard Prosper, TX 75078 $579,900 3,700 平方英尺. $157
2018-03-12 独户式别墅 Ranch; Traditional 1600 Whispering Meadows Way Prosper, TX 75078 $965,000 4,936 平方英尺. 30,056 平方英尺. $196
2018-03-12 独户式别墅 Traditional 2711 Langley Way Prosper, TX 75078 $587,900 3,916 平方英尺. $150
2018-03-12 独户式别墅 Traditional 16225 Stillhouse Hollow Court Prosper, TX 75078 $305,000 2,423 平方英尺. 5,663 平方英尺. $126
2018-03-12 独户式别墅 920 English Ivy Drive Prosper, TX 75078 $235,000 1,983 平方英尺. 6,534 平方英尺. $119
2018-03-09 独户式别墅 Traditional 1804 Balboa Park Drive Prosper, TX 75078 $380,000 2,982 平方英尺. 6,534 平方英尺. $127
2018-03-09 独户式别墅 Traditional 2860 Creek View Court Prosper, TX 75078 $799,000 4,498 平方英尺. 59,242 平方英尺. $178
2018-03-09 独户式别墅 Traditional 780 Whispering Way Prosper, TX 75078 $1,395,000 5,983 平方英尺. 54,014 平方英尺. $233
2018-03-09 独户式别墅 Traditional 1709 Medina Lane Prosper, TX 75078 $339,000 2,701 平方英尺. 5,663 平方英尺. $126
2018-03-08 独户式别墅 Traditional 1541 Wichita Drive Prosper, TX 75078 $529,990 3,472 平方英尺. 14,375 平方英尺. $153
2018-03-08 独户式别墅 Traditional 1561 Blue Forest Drive Prosper, TX 75078 $777,000 3,815 平方英尺. 43,996 平方英尺. $204
2018-03-08 独户式别墅 Traditional 1701 Gentle Way Prosper, TX 75078 $995,000 5,007 平方英尺. 55,757 平方英尺. $199
2018-03-08 独户式别墅 Traditional 1630 Trellis Drive Prosper, TX 75078 $539,407 3,563 平方英尺. 6,970 平方英尺. $151
2018-03-08 独户式别墅 1408 Palestine Drive Prosper, TX 75078 $345,000 3,373 平方英尺. 9,583 平方英尺. $102
2018-03-08 独户式别墅 Traditional 440 Whitley Place Drive Prosper, TX 75078 $1,199,000 4,920 平方英尺. 32,234 平方英尺. $244
2018-03-07 独户式别墅 Traditional 1570 Hidden Glen Court Prosper, TX 75078 $574,900 3,901 平方英尺. 15,246 平方英尺. $147
2018-03-07 独户式别墅 Traditional 1911 Bozman Trail Prosper, TX 75078 $534,990 4,231 平方英尺. 14,375 平方英尺. $126
2018-03-07 独户式别墅 Traditional 1751 Winchester Drive Prosper, TX 75078 $588,878 4,037 平方英尺. 14,375 平方英尺. $146
2018-03-07 独户式别墅 Traditional 840 Del Carmen Drive Prosper, TX 75078 $625,000 4,919 平方英尺. 23,522 平方英尺. $127
2018-03-07 独户式别墅 Traditional 1329 Palestine Drive Prosper, TX 75078 $379,990 3,457 平方英尺. 7,405 平方英尺. $110
2018-03-07 独户式别墅 Traditional 4240 Paddock Lane Prosper, TX 75078 $614,900 3,433 平方英尺. $179
2018-03-07 独户式别墅 1021 Cliff Creek Drive Prosper, TX 75078 $900,000 4,399 平方英尺. 13,068 平方英尺. $205
2018-03-07 独户式别墅 4251 Glacier Point Court Prosper, TX 75078 $1,098,000 5,420 平方英尺. 13,068 平方英尺. $203
2018-03-06 独户式别墅 Traditional 840 Star Meadow Drive Prosper, TX 75078 $699,900 4,153 平方英尺. $169
2018-03-05 独户式别墅 Traditional 2141 Woodhaven Drive Prosper, TX 75078 $969,900 4,135 平方英尺. 34,848 平方英尺. $235
2018-03-05 独户式别墅 Traditional 831 Shackleford Lane Prosper, TX 75078 $889,990 4,846 平方英尺. 10,890 平方英尺. $184
2018-03-05 独户式别墅 Traditional 1460 Brookhill Lane Prosper, TX 75078 $527,652 3,946 平方英尺. 10,019 平方英尺. $134
2018-03-05 独户式别墅 Traditional 240 Lake Trail Lane Prosper, TX 75078 $479,990 3,849 平方英尺. 10,019 平方英尺. $125
2018-03-05 独户式别墅 Traditional 1431 Brookhill Lane Prosper, TX 75078 $459,990 3,078 平方英尺. 10,019 平方英尺. $149
2018-03-05 独户式别墅 Traditional 500 Timber Ridge Road Prosper, TX 75078 $429,900 3,049 平方英尺. 9,148 平方英尺. $141
2018-03-05 独户式别墅 English 1941 Foxglen Drive Prosper, TX 75078 $567,209 3,678 平方英尺. 8,276 平方英尺. $154
2018-03-05 独户式别墅 Traditional 1721 Quail Creek Lane Prosper, TX 75078 $574,303 3,583 平方英尺. 11,326 平方英尺. $160
2018-03-05 独户式别墅 1660 Trellis Drive Prosper, TX 75078 $500,385 2,786 平方英尺. 6,970 平方英尺. $180
2018-03-05 独户式别墅 Ranch 1650 White Tail Drive Prosper, TX 75078 $508,592 2,949 平方英尺. 8,276 平方英尺. $172
2018-03-04 独户式别墅 Traditional 2113 Commons Way Prosper, TX 75078 $499,490 3,834 平方英尺. $130
2018-03-04 独户式别墅 Traditional 3721 Glacier Point Court Prosper, TX 75078 $825,900 4,703 平方英尺. $176
2018-03-03 独户式别墅 901 Twin Buttes Drive Prosper, TX 75078 $459,999 3,848 平方英尺. 10,019 平方英尺. $120
2018-03-02 独户式别墅 Traditional 831 Ivy Glen Court Prosper, TX 75078 $749,900 4,842 平方英尺. $155
2018-03-02 独户式别墅 1640 Pebblebrook Lane Prosper, TX 75078 $445,118 2,321 平方英尺. 6,970 平方英尺. $192
2018-03-02 独户式别墅 1351 Waterton Drive Prosper, TX 75078 $729,490 4,308 平方英尺. 15,246 平方英尺. $169
2018-03-02 独户式别墅 Traditional 1181 Circle J Trail Prosper, TX 75078 $519,900 3,838 平方英尺. 12,632 平方英尺. $135
2018-03-02 独户式别墅 Traditional 700 Texana Drive Prosper, TX 75078 $469,000 4,297 平方英尺. 10,454 平方英尺. $109
2018-03-01 独户式别墅 French; Traditional 2540 Westview Court Prosper, TX 75078 $1,850,000 6,807 平方英尺. 147,233 平方英尺. $272
2018-03-01 独户式别墅 Traditional 16713 Dry Creek Boulevard Prosper, TX 75078 $350,000 3,474 平方英尺. 6,098 平方英尺. $101
2018-03-01 独户式别墅 Traditional 1740 Blue Forest Drive Prosper, TX 75078 $785,000 4,411 平方英尺. 50,965 平方英尺. $178
2018-02-28 独户式别墅 Traditional 1716 Medina Lane Prosper, TX 75078 $370,000 2,963 平方英尺. 5,663 平方英尺. $125
2018-02-28 独户式别墅 Traditional 304 Stone Hollow Court Prosper, TX 75078 $409,500 3,677 平方英尺. 16,988 平方英尺. $111
2018-02-27 独户式别墅 Traditional 810 Ivy Glen Court Prosper, TX 75078 $724,900 3,904 平方英尺. $186
2018-02-27 独户式别墅 830 Shackleford Lane Prosper, TX 75078 $849,900 4,477 平方英尺. 11,326 平方英尺. $190
2018-02-27 独户式别墅 Southwestern; Traditional 4151 Blue Sage Drive Prosper, TX 75078 $593,513 3,553 平方英尺. 6,534 平方英尺. $167
2018-02-27 独户式别墅 Traditional 1700 Oakcrest Drive Prosper, TX 75078 $598,875 4,067 平方英尺. 8,276 平方英尺. $147
2018-02-27 独户式别墅 921 St. Peter Lane Prosper, TX 75078 $550,000 3,231 平方英尺. 15,682 平方英尺. $170
2018-02-27 独户式别墅 Traditional 830 Wright Lane Prosper, TX 75078 $857,900 4,657 平方英尺. 10,890 平方英尺. $184
2018-02-27 独户式别墅 Traditional 1911 Cedar Springs Drive Prosper, TX 75078 $635,000 4,482 平方英尺. 18,731 平方英尺. $142
2018-02-27 独户式别墅 Early American; English; Traditional; Tudor 700 Willowgate Drive Prosper, TX 75078 $549,900 4,181 平方英尺. 17,860 平方英尺. $132
2018-02-27 独户式别墅 Traditional 1650 Pebblebrook Lane Prosper, TX 75078 $510,920 3,498 平方英尺. 6,970 平方英尺. $146
2018-02-27 独户式别墅 800 Elm Park Drive Prosper, TX 75078 $485,000 3,800 平方英尺. 7,841 平方英尺. $128
2018-02-27 独户式别墅 Traditional 1651 Oakcrest Drive Prosper, TX 75078 $590,410 4,066 平方英尺. 8,276 平方英尺. $145
2018-02-27 独户式别墅 Traditional 1661 Oakcrest Drive Prosper, TX 75078 $583,925 3,965 平方英尺. 8,276 平方英尺. $147
2018-02-27 独户式别墅 Traditional 1221 Castle Drive Prosper, TX 75078 $523,990 3,929 平方英尺. $133
2018-02-27 独户式别墅 1660 Cascades Court Prosper, TX 75078 $684,490 4,308 平方英尺. 21,780 平方英尺. $159
2018-02-27 独户式别墅 Traditional 2305 Richmond Park Lane Prosper, TX 75078 $510,770 4,158 平方英尺. 7,841 平方英尺. $123
2018-02-27 独户式别墅 Traditional 2860 Clarendon Court Prosper, TX 75078 $548,900 3,450 平方英尺. $159
2018-02-27 独户式别墅 Traditional 1100 Terrace Manor Drive Prosper, TX 75078 $589,900 4,018 平方英尺. 14,375 平方英尺. $147
2018-02-27 独户式别墅 Traditional 1500 Brookhill Lane Prosper, TX 75078 $520,803 3,413 平方英尺. 10,019 平方英尺. $153
2018-02-27 独户式别墅 Traditional 2790 Kingston Street Prosper, TX 75078 $574,900 4,025 平方英尺. $143
2018-02-27 独户式别墅 Traditional 2701 Vista View Lane Prosper, TX 75078 $779,000 3,838 平方英尺. 72,310 平方英尺. $203
2018-02-27 独户式别墅 Traditional 1610 Pebblebrook Lane Prosper, TX 75078 $526,621 3,461 平方英尺. 7,405 平方英尺. $152
2018-02-27 独户式别墅 Traditional 4570 Acacia Parkway Prosper, TX 75078 $655,000 4,650 平方英尺. 10,890 平方英尺. $141
2018-02-27 独户式别墅 Traditional 2440 Greenspoint Lane Prosper, TX 75078 $895,000 4,825 平方英尺. 20,038 平方英尺. $185
2018-02-27 独户式别墅 French 720 Columbia Court Prosper, TX 75078 $824,990 4,650 平方英尺. 17,424 平方英尺. $177
2018-02-27 独户式别墅 Traditional 840 Summerfield Drive Prosper, TX 75078 $594,900 4,162 平方英尺. 9,583 平方英尺. $143
2018-02-27 独户式别墅 Traditional 2601 Fair Oaks Lane Prosper, TX 75078 $824,900 4,712 平方英尺. 20,473 平方英尺. $175
2018-02-27 独户式别墅 Traditional 2700 Meadowbrook Boulevard Prosper, TX 75078 $524,900 2,969 平方英尺. $177
2018-02-27 独户式别墅 Traditional 801 Star Meadow Drive Prosper, TX 75078 $674,900 4,492 平方英尺. $150
2018-02-27 独户式别墅 Traditional 140 Darian Drive Prosper, TX 75078 $513,990 4,251 平方英尺. 10,019 平方英尺. $121
2018-02-27 独户式别墅 Traditional 220 Dianna Drive Prosper, TX 75078 $519,990 4,151 平方英尺. 11,761 平方英尺. $125
2018-02-27 独户式别墅 Traditional 4121 Tranquility Lane Prosper, TX 75078 $1,149,900 5,073 平方英尺. 46,174 平方英尺. $227
2018-02-27 独户式别墅 Traditional 3304 Twin Lakes Drive Prosper, TX 75078 $650,000 3,367 平方英尺. 44,431 平方英尺. $193
2018-02-27 独户式别墅 Traditional 4140 Paddock Lane Prosper, TX 75078 $644,900 4,034 平方英尺. $160
2018-02-27 独户式别墅 Contemporary/Modern; Traditional 401 Travis Lane Prosper, TX 75078 $600,000 4,662 平方英尺. 16,988 平方英尺. $129
2018-02-27 独户式别墅 Traditional 3721 Spicewood Drive Prosper, TX 75078 $699,973 4,603 平方英尺. 10,890 平方英尺. $152
2018-02-27 独户式别墅 Traditional 4011 Arches Lane Prosper, TX 75078 $1,175,000 5,378 平方英尺. 15,246 平方英尺. $218
2018-02-27 独户式别墅 Traditional 831 Star Meadow Drive Prosper, TX 75078 $649,900 3,522 平方英尺. $185
2018-02-27 独户式别墅 Traditional 821 Ivy Glen Court Prosper, TX 75078 $624,900 3,433 平方英尺. $182
2018-02-27 独户式别墅 Traditional 1220 Rainier Drive Prosper, TX 75078 $535,990 3,744 平方英尺. $143
2018-02-27 独户式别墅 Traditional 1090 Harvest Hill Drive Prosper, TX 75078 $695,000 4,626 平方英尺. 8,276 平方英尺. $150
2018-02-27 独户式别墅 Traditional 4050 Blue Sage Drive Prosper, TX 75078 $450,000 2,291 平方英尺. 6,534 平方英尺. $196
2018-02-27 独户式别墅 Traditional 3971 Pine Leaf Prosper, TX 75078 $489,793 3,362 平方英尺. 10,890 平方英尺. $146
2018-02-27 独户式别墅 Traditional 2750 Kingston Street Prosper, TX 75078 $499,170 3,104 平方英尺. 10,890 平方英尺. $161
2018-02-27 独户式别墅 Traditional 16025 Plum Court Prosper, TX 75078 $442,820 3,410 平方英尺. 6,098 平方英尺. $130
2018-02-27 独户式别墅 Traditional 16104 Olmsted Park Boulevard Prosper, TX 75078 $364,470 2,087 平方英尺. 6,534 平方英尺. $175
2018-02-27 独户式别墅 Traditional 1090 Jessica Lane Prosper, TX 75078 $449,999 2,874 平方英尺. 17,860 平方英尺. $157
2018-02-27 独户式别墅 Traditional 420 Timber Ridge Road Prosper, TX 75078 $365,000 1,921 平方英尺. $190
2018-02-27 独户式别墅 Traditional 2016 Overton Park Drive Prosper, TX 75078 $430,855 3,166 平方英尺. 6,534 平方英尺. $136
2018-02-27 独户式别墅 Traditional 2309 Richmond Park Lane Prosper, TX 75078 $462,540 3,324 平方英尺. 8,712 平方英尺. $139
2018-02-27 独户式别墅 Traditional 2930 Clearwater Drive Prosper, TX 75078 $399,900 3,482 平方英尺. 7,841 平方英尺. $115
2018-02-27 独户式别墅 Traditional 1641 Trellis Drive Prosper, TX 75078 $417,520 2,170 平方英尺. 6,970 平方英尺. $192
2018-02-27 独户式别墅 Traditional 2413 Prospect Park Lane Prosper, TX 75078 $395,000 2,892 平方英尺. 6,970 平方英尺. $137
2018-02-27 独户式别墅 Traditional 16005 Holly Creek Prosper, TX 75078 $344,201 2,144 平方英尺. 5,663 平方英尺. $161
2018-02-27 独户式别墅 Traditional 2161 Lavaca Prosper, TX 75078 $460,000 3,705 平方英尺. 10,019 平方英尺. $124
2018-02-27 独户式别墅 Traditional 360 Kingsbury Ln Lane Prosper, TX 75078 $470,658 2,985 平方英尺. 12,632 平方英尺. $158
2018-02-27 独户式别墅 Traditional 1317 Palestine Drive Prosper, TX 75078 $339,000 2,248 平方英尺. 6,534 平方英尺. $151
2018-02-27 独户式别墅 Traditional 16309 Toledo Bend Court Prosper, TX 75078 $325,000 2,701 平方英尺. 6,098 平方英尺. $120
2018-02-27 独户式别墅 Traditional 411 Oxford Place Prosper, TX 75078 $417,900 3,411 平方英尺. 10,454 平方英尺. $123
2018-02-27 独户式别墅 Traditional 1130 Somerset Way Prosper, TX 75078 $405,900 3,043 平方英尺. 9,583 平方英尺. $133
2018-02-27 独户式别墅 Traditional 16612 Spence Park Lane Prosper, TX 75078 $321,500 2,184 平方英尺. 6,098 平方英尺. $147
2018-02-27 独户式别墅 Traditional 520 Evening Sun Drive Prosper, TX 75078 $483,974 3,465 平方英尺. 9,148 平方英尺. $140
2018-02-27 独户式别墅 Traditional 760 Berkshire Drive Prosper, TX 75078 $439,000 3,693 平方英尺. 9,583 平方英尺. $119
2018-02-27 独户式别墅 Traditional 1305 Hudson Lane Prosper, TX 75078 $284,900 1,872 平方英尺. 7,405 平方英尺. $152
2018-02-27 独户式别墅 Traditional 500 Calla Lily Lane Prosper, TX 75078 $321,990 2,248 平方英尺. 436 平方英尺. $143
2018-02-26 独户式别墅 Traditional 221 Sandstone Drive Prosper, TX 75078 $385,000 3,052 平方英尺. 10,890 平方英尺. $126
2018-02-26 独户式别墅 Traditional; Victorian 3990 Lantana Lane Prosper, TX 75078 $603,354 3,519 平方英尺. 6,534 平方英尺. $171
2018-02-26 独户式别墅 Traditional 1210 Rainier Drive Prosper, TX 75078 $508,990 3,641 平方英尺. $140
2018-02-26 独户式别墅 Traditional 670 Abbey Lane Prosper, TX 75078 $569,000 4,084 平方英尺. 14,810 平方英尺. $139
2018-02-26 独户式别墅 French 4161 Glacier Point Court Prosper, TX 75078 $1,895,000 6,332 平方英尺. 23,087 平方英尺. $299
2018-02-26 独户式别墅 Traditional 1910 Harvard Avenue Prosper, TX 75078 $700,000 3,474 平方英尺. 9,583 平方英尺. $202
2018-02-26 独户式别墅 Traditional 1830 Princeton Lane Prosper, TX 75078 $750,000 4,060 平方英尺. 9,583 平方英尺. $185
2018-02-26 独户式别墅 921 Circle J Trail Prosper, TX 75078 $719,900 4,689 平方英尺. 14,810 平方英尺. $154
2018-02-26 独户式别墅 Traditional 2560 Bendbrook Trail Prosper, TX 75078 $549,900 4,133 平方英尺. 8,712 平方英尺. $133
2018-02-26 独户式别墅 Traditional 1191 Crooked Stick Drive Prosper, TX 75078 $765,000 4,056 平方英尺. 22,216 平方英尺. $189
2018-02-26 独户式别墅 750 Ashbury Lane Prosper, TX 75078 $410,000 1,961 平方英尺. 8,276 平方英尺. $209
2018-02-26 独户式别墅 Traditional 16409 Benbrook Boulevard Prosper, TX 75078 $397,740 2,859 平方英尺. $139
2018-02-26 独户式别墅 Traditional 1908 Artesia Boulevard Prosper, TX 75078 $425,490 2,940 平方英尺. $145
2018-02-26 独户式别墅 Traditional 2201 Sutton Park Avenue Prosper, TX 75078 $499,000 3,526 平方英尺. $142
2018-02-26 独户式别墅 780 Elm Park Drive Prosper, TX 75078 $400,000 2,355 平方英尺. 7,405 平方英尺. $170
2018-02-26 独户式别墅 1131 Belknap Way Prosper, TX 75078 $488,501 3,300 平方英尺. 8,276 平方英尺. $148
2018-02-26 独户式别墅 4901 Dolorosa Lane Prosper, TX 75078 $399,000 2,274 平方英尺. 8,276 平方英尺. $175
2018-02-26 独户式别墅 4881 Dolorosa Lane Prosper, TX 75078 $437,264 2,838 平方英尺. 8,276 平方英尺. $154
2018-02-26 独户式别墅 Traditional 741 Huron Court Prosper, TX 75078 $425,000 3,470 平方英尺. 13,504 平方英尺. $122
2018-01-18 独户式别墅 Traditional 4211 Paddock Lane Prosper, TX 75078 $574,900 2,969 平方英尺. $194
2018-01-17 独户式别墅 Traditional 760 Salada Drive Prosper, TX 75078 $469,000 4,438 平方英尺. 10,454 平方英尺. $106
2018-01-17 独户式别墅 1821 Shavano Way Prosper, TX 75078 $544,524 3,233 平方英尺. 14,375 平方英尺. $168
2018-01-17 独户式别墅 1811 Shavano Way Prosper, TX 75078 $562,180 3,401 平方英尺. 14,375 平方英尺. $165
2018-01-17 独户式别墅 1801 Shavano Way Prosper, TX 75078 $549,900 3,250 平方英尺. 14,375 平方英尺. $169
2018-01-16 独户式别墅 Traditional 841 Ivy Glen Court Prosper, TX 75078 $649,900 3,522 平方英尺. $185
2018-01-16 独户式别墅 Traditional 2016 Long Park Avenue Prosper, TX 75078 $399,990 2,786 平方英尺. $144
2018-01-16 独户式别墅 1380 Buckskin Trail Prosper, TX 75078 $729,000 4,745 平方英尺. 13,068 平方英尺. $154
2018-01-15 独户式别墅 Traditional 870 Greenbriar Lane Prosper, TX 75078 $634,895 4,162 平方英尺. 10,890 平方英尺. $153
2018-01-15 独户式别墅 Traditional 910 Greenbriar Lane Prosper, TX 75078 $544,936 3,139 平方英尺. 10,890 平方英尺. $174
2018-01-15 独户式别墅 Traditional 3900 Marigold Lane Prosper, TX 75078 $449,972 2,617 平方英尺. 10,890 平方英尺. $172
2018-01-15 独户式别墅 Traditional 961 Whistler Lane Prosper, TX 75078 $649,900 4,707 平方英尺. 12,197 平方英尺. $138
2018-01-15 独户式别墅 Traditional 1701 Oakcrest Drive Prosper, TX 75078 $555,801 3,751 平方英尺. 8,276 平方英尺. $148
2018-01-13 独户式别墅 1640 Clinton Drive Prosper, TX 75078 $529,227 3,302 平方英尺. 6,970 平方英尺. $160
2018-01-13 独户式别墅 Traditional 604 Creek View Drive Prosper, TX 75078 $394,900 3,365 平方英尺. 21,344 平方英尺. $117
2018-01-12 独户式别墅 Traditional 880 Jessica Court Prosper, TX 75078 $619,000 4,284 平方英尺. 12,197 平方英尺. $144
2018-01-12 独户式别墅 Traditional 641 Logans Way Drive Prosper, TX 75078 $579,000 3,838 平方英尺. 12,632 平方英尺. $151
2018-01-12 独户式别墅 Traditional 16304 Dry Creek Boulevard Prosper, TX 75078 $299,999 2,161 平方英尺. 8,276 平方英尺. $139
2018-01-12 独户式别墅 Traditional 15900 Holly Creek Prosper, TX 75078 $414,312 3,091 平方英尺. 5,663 平方英尺. $134
2018-01-12 独户式别墅 Traditional 730 Country Brook Lane Prosper, TX 75078 $525,000 2,925 平方英尺. 11,326 平方英尺. $179
2018-01-12 独户式别墅 Traditional 821 Country Brook Lane Prosper, TX 75078 $575,000 3,403 平方英尺. 10,890 平方英尺. $169
2018-01-12 独户式别墅 Traditional 2140 Longmont Lane Prosper, TX 75078 $550,000 3,202 平方英尺. 10,890 平方英尺. $172
2018-01-12 独户式别墅 Traditional 2151 Country Brook Lane Prosper, TX 75078 $695,000 4,629 平方英尺. 10,890 平方英尺. $150
2018-01-12 独户式别墅 Traditional 2151 Longmont Lane Prosper, TX 75078 $625,000 4,379 平方英尺. 10,890 平方英尺. $143
2018-01-12 独户式别墅 Traditional 741 Hunters Place Prosper, TX 75078 $664,900 5,040 平方英尺. 17,424 平方英尺. $132
2018-01-11 独户式别墅 Traditional 2771 Meadowbrook Boulevard Prosper, TX 75078 $574,900 3,796 平方英尺. $151
2018-01-11 独户式别墅 Traditional 16501 Stillhouse Hollow Court Prosper, TX 75078 $348,900 2,704 平方英尺. 5,663 平方英尺. $129
2018-01-10 独户式别墅 Traditional 4140 Blue Sage Drive Prosper, TX 75078 $588,693 3,477 平方英尺. 8,712 平方英尺. $169
2018-01-10 独户式别墅 Traditional 4130 Blue Sage Drive Prosper, TX 75078 $597,695 3,690 平方英尺. 7,841 平方英尺. $162
2018-01-09 独户式别墅 Traditional 4261 San Juan Street Prosper, TX 75078 $1,275,000 5,509 平方英尺. 58,370 平方英尺. $231
2018-01-09 独户式别墅 Traditional 4070 Dewberry Lane Prosper, TX 75078 $513,282 2,604 平方英尺. 8,712 平方英尺. $197
2018-01-09 独户式别墅 1211 Castle Drive Prosper, TX 75078 $549,990 4,246 平方英尺. 13,504 平方英尺. $130
2018-01-09 独户式别墅 1171 Castle Drive Prosper, TX 75078 $564,990 4,159 平方英尺. 16,553 平方英尺. $136
2018-01-09 独户式别墅 Contemporary/Modern 1917 Forest Park Drive Prosper, TX 75078 $348,995 2,577 平方英尺. 7,405 平方英尺. $135
2018-01-09 独户式别墅 Traditional 1181 Golden Sunset Court Prosper, TX 75078 $412,999 3,030 平方英尺. 9,148 平方英尺. $136
2018-01-09 独户式别墅 Traditional 530 Gentry Drive Prosper, TX 75078 $699,990 4,618 平方英尺. 10,454 平方英尺. $152
2018-01-09 独户式别墅 Traditional 931 Waterview Drive Prosper, TX 75078 $409,000 2,660 平方英尺. 10,019 平方英尺. $154
2018-01-09 独户式别墅 Traditional 201 Stone Hollow Court Prosper, TX 75078 $409,900 3,118 平方英尺. 17,860 平方英尺. $131
2018-01-08 独户式别墅 Traditional 1521 St Peter Lane Prosper, TX 75078 $1,095,000 4,653 平方英尺. 15,246 平方英尺. $235
2018-01-08 独户式别墅 Traditional 1641 St Peter Lane Prosper, TX 75078 $1,250,000 5,517 平方英尺. 27,007 平方英尺. $227
2018-01-08 独户式别墅 Traditional 1520 St Peter Lane Prosper, TX 75078 $1,235,000 4,677 平方英尺. 15,246 平方英尺. $264
2018-01-08 独户式别墅 Traditional 1500 St Peter Lane Prosper, TX 75078 $999,000 4,023 平方英尺. 15,246 平方英尺. $248
2018-01-08 独户式别墅 Traditional 1920 Harvard Avenue Prosper, TX 75078 $650,000 3,310 平方英尺. 12,197 平方英尺. $196
2018-01-08 独户式别墅 Traditional 1911 River Rock Lane Prosper, TX 75078 $475,000 2,976 平方英尺. 8,276 平方英尺. $160
2018-01-03 独户式别墅 Traditional 4021 Arches Lane Prosper, TX 75078 $850,000 4,947 平方英尺. 17,424 平方英尺. $172
2018-01-03 独户式别墅 Traditional 2760 Kingston Street Prosper, TX 75078 $549,354 4,152 平方英尺. 9,583 平方英尺. $132